createdAt,value
2022-10-18T00:00:33.253Z,34.80
2022-10-18T00:01:33.249Z,35.93
2022-10-18T00:02:33.274Z,47.70
2022-10-18T00:03:33.292Z,35.93
2022-10-18T00:04:33.227Z,47.37
2022-10-18T00:05:33.210Z,38.19
2022-10-18T00:06:33.224Z,36.90
2022-10-18T00:07:33.424Z,43.02
2022-10-18T00:08:33.213Z,34.80
2022-10-18T00:09:33.174Z,34.80
2022-10-18T00:10:33.176Z,35.77
2022-10-18T00:11:33.174Z,35.29
2022-10-18T00:12:33.205Z,35.45
2022-10-18T00:13:33.175Z,38.19
2022-10-18T00:14:33.143Z,40.28
2022-10-18T00:15:33.136Z,46.08
2022-10-18T00:16:33.144Z,38.99
2022-10-18T00:17:33.364Z,36.25
2022-10-18T00:18:33.139Z,34.80
2022-10-18T00:19:33.105Z,35.77
2022-10-18T00:20:33.104Z,38.35
2022-10-18T00:21:33.142Z,35.77
2022-10-18T00:22:33.412Z,34.80
2022-10-18T00:23:33.096Z,42.54
2022-10-18T00:24:33.073Z,42.54
2022-10-18T00:25:33.070Z,36.74
2022-10-18T00:26:33.059Z,34.97
2022-10-18T00:27:33.045Z,37.06
2022-10-18T00:28:33.096Z,35.77
2022-10-18T00:29:33.036Z,53.50
2022-10-18T00:30:33.030Z,39.96
2022-10-18T00:31:33.012Z,41.25
2022-10-18T00:32:33.419Z,39.80
2022-10-18T00:33:33.034Z,50.76
2022-10-18T00:34:32.987Z,40.61
2022-10-18T00:35:33.006Z,41.09
2022-10-18T00:36:32.972Z,44.15
2022-10-18T00:37:32.976Z,42.38
2022-10-18T00:38:32.991Z,49.79
2022-10-18T00:39:32.952Z,49.79
2022-10-18T00:40:32.947Z,41.25
2022-10-18T00:41:32.934Z,43.67
2022-10-18T00:42:33.365Z,54.62
2022-10-18T00:43:32.917Z,40.28
2022-10-18T00:44:32.939Z,44.96
2022-10-18T00:45:32.905Z,48.18
2022-10-18T00:46:32.893Z,45.92
2022-10-18T00:47:32.893Z,37.54
2022-10-18T00:48:32.879Z,36.42
2022-10-18T00:49:32.901Z,37.06
2022-10-18T00:50:32.866Z,36.74
2022-10-18T00:51:32.855Z,35.61
2022-10-18T00:52:33.137Z,42.38
2022-10-18T00:53:32.835Z,42.22
2022-10-18T00:54:32.852Z,41.73
2022-10-18T00:55:32.829Z,42.70
2022-10-18T00:56:32.806Z,39.16
2022-10-18T00:57:33.808Z,36.09
2022-10-18T00:58:32.796Z,36.42
2022-10-18T00:59:32.820Z,38.03
2022-10-18T01:00:32.785Z,42.22
2022-10-18T01:01:32.794Z,44.63
2022-10-18T01:02:33.071Z,44.31
2022-10-18T01:03:32.751Z,35.29
2022-10-18T01:04:32.790Z,35.45
2022-10-18T01:05:32.739Z,43.18
2022-10-18T01:06:32.729Z,43.51
2022-10-18T01:07:32.926Z,40.44
2022-10-18T01:08:32.710Z,36.90
2022-10-18T01:09:32.726Z,37.54
2022-10-18T01:10:32.698Z,37.38
2022-10-18T01:11:32.696Z,47.05
2022-10-18T01:12:32.678Z,48.50
2022-10-18T01:13:32.675Z,47.21
2022-10-18T01:14:32.691Z,45.76
2022-10-18T01:15:32.661Z,45.28
2022-10-18T01:16:32.646Z,45.76
2022-10-18T01:17:32.976Z,43.99
2022-10-18T01:18:32.636Z,43.18
2022-10-18T01:19:32.645Z,43.02
2022-10-18T01:20:32.621Z,43.18
2022-10-18T01:21:32.607Z,46.25
2022-10-18T01:22:32.599Z,43.18
2022-10-18T01:23:32.596Z,44.96
2022-10-18T01:24:32.614Z,48.02
2022-10-18T01:25:32.578Z,46.08
2022-10-18T01:26:32.567Z,44.96
2022-10-18T01:27:32.770Z,43.67
2022-10-18T01:28:32.624Z,52.37
2022-10-18T01:29:32.573Z,46.41
2022-10-18T01:30:32.536Z,45.12
2022-10-18T01:31:32.534Z,44.79
2022-10-18T01:32:32.527Z,44.79
2022-10-18T01:33:32.516Z,44.31
2022-10-18T01:34:32.538Z,47.21
2022-10-18T01:35:32.503Z,44.79
2022-10-18T01:36:32.494Z,43.02
2022-10-18T01:37:32.812Z,42.06
2022-10-18T01:38:32.478Z,45.28
2022-10-18T01:39:32.490Z,43.51
2022-10-18T01:40:32.461Z,51.72
2022-10-18T01:41:32.451Z,48.98
2022-10-18T01:42:32.444Z,49.95
2022-10-18T01:43:32.437Z,50.92
2022-10-18T01:44:32.458Z,49.31
2022-10-18T01:45:32.419Z,53.01
2022-10-18T01:46:32.405Z,50.11
2022-10-18T01:47:32.742Z,48.82
2022-10-18T01:48:32.396Z,48.82
2022-10-18T01:49:32.409Z,49.95
2022-10-18T01:50:32.376Z,47.70
2022-10-18T01:51:32.366Z,48.66
2022-10-18T01:52:32.707Z,47.53
2022-10-18T01:53:32.357Z,47.21
2022-10-18T01:54:32.369Z,46.57
2022-10-18T01:55:32.333Z,46.41
2022-10-18T01:56:32.329Z,48.34
2022-10-18T01:57:32.317Z,48.02
2022-10-18T01:58:32.324Z,53.01
2022-10-18T01:59:32.333Z,52.21
2022-10-18T02:00:32.292Z,55.27
2022-10-18T02:01:32.288Z,52.37
2022-10-18T02:02:32.487Z,53.98
2022-10-18T02:03:32.269Z,55.11
2022-10-18T02:04:32.294Z,55.91
2022-10-18T02:05:32.263Z,54.62
2022-10-18T02:06:32.254Z,55.75
2022-10-18T02:07:32.241Z,55.59
2022-10-18T02:08:32.246Z,54.30
2022-10-18T02:09:32.249Z,53.98
2022-10-18T02:10:32.220Z,56.56
2022-10-18T02:11:32.217Z,55.91
2022-10-18T02:12:32.514Z,54.95
2022-10-18T02:13:32.200Z,55.11
2022-10-18T02:14:32.216Z,58.81
2022-10-18T02:15:32.183Z,59.30
2022-10-18T02:16:32.180Z,59.30
2022-10-18T02:17:32.166Z,59.14
2022-10-18T02:18:32.173Z,60.75
2022-10-18T02:19:32.179Z,60.26
2022-10-18T02:20:32.146Z,59.46
2022-10-18T02:21:32.146Z,58.81
2022-10-18T02:22:32.350Z,57.36
2022-10-18T02:23:32.118Z,54.62
2022-10-18T02:24:32.151Z,53.01
2022-10-18T02:25:32.105Z,49.31
2022-10-18T02:26:32.097Z,47.21
2022-10-18T02:27:32.100Z,46.73
2022-10-18T02:28:32.089Z,51.24
2022-10-18T02:29:32.098Z,50.11
2022-10-18T02:30:32.074Z,51.08
2022-10-18T02:31:32.057Z,44.47
2022-10-18T02:32:32.627Z,45.44
2022-10-18T02:33:32.046Z,49.79
2022-10-18T02:34:32.039Z,48.50
2022-10-18T02:35:32.064Z,45.28
2022-10-18T02:36:32.022Z,52.37
2022-10-18T02:37:32.020Z,55.91
2022-10-18T02:38:32.014Z,54.14
2022-10-18T02:39:32.004Z,50.27
2022-10-18T02:40:32.010Z,48.98
2022-10-18T02:41:31.978Z,45.76
2022-10-18T02:42:32.174Z,46.89
2022-10-18T02:43:31.962Z,47.37
2022-10-18T02:44:31.956Z,46.73
2022-10-18T02:45:31.973Z,47.53
2022-10-18T02:46:31.966Z,52.53
2022-10-18T02:47:32.143Z,54.46
2022-10-18T02:48:31.921Z,55.59
2022-10-18T02:49:31.913Z,53.17
2022-10-18T02:50:31.935Z,51.72
2022-10-18T02:51:31.909Z,51.72
2022-10-18T02:52:31.890Z,50.11
2022-10-18T02:53:31.880Z,56.40
2022-10-18T02:54:31.875Z,52.69
2022-10-18T02:55:31.900Z,53.17
2022-10-18T02:56:31.861Z,52.05
2022-10-18T02:57:32.119Z,52.37
2022-10-18T02:58:31.849Z,51.24
2022-10-18T02:59:31.835Z,52.21
2022-10-18T03:00:31.844Z,53.82
2022-10-18T03:01:32.857Z,53.66
2022-10-18T03:02:31.809Z,54.30
2022-10-18T03:03:31.807Z,53.33
2022-10-18T03:04:31.795Z,52.37
2022-10-18T03:05:31.808Z,51.72
2022-10-18T03:06:31.778Z,54.30
2022-10-18T03:07:31.950Z,57.04
2022-10-18T03:08:31.762Z,56.56
2022-10-18T03:09:31.748Z,56.40
2022-10-18T03:10:31.773Z,57.85
2022-10-18T03:11:31.736Z,53.33
2022-10-18T03:12:31.726Z,56.07
2022-10-18T03:13:31.730Z,58.97
2022-10-18T03:14:31.714Z,59.78
2022-10-18T03:15:31.726Z,60.59
2022-10-18T03:16:31.695Z,58.65
2022-10-18T03:17:31.933Z,57.04
2022-10-18T03:18:31.678Z,57.69
2022-10-18T03:19:31.674Z,53.82
2022-10-18T03:20:31.696Z,51.56
2022-10-18T03:21:31.660Z,52.85
2022-10-18T03:22:31.655Z,52.05
2022-10-18T03:23:31.640Z,55.91
2022-10-18T03:24:31.631Z,56.56
2022-10-18T03:25:31.651Z,60.26
2022-10-18T03:26:31.616Z,60.26
2022-10-18T03:27:32.017Z,60.26
2022-10-18T03:28:31.635Z,59.14
2022-10-18T03:29:31.595Z,54.14
2022-10-18T03:30:31.579Z,52.69
2022-10-18T03:32:31.907Z,53.33
2022-10-18T03:33:31.567Z,57.69
2022-10-18T03:34:31.569Z,56.40
2022-10-18T03:35:31.576Z,59.30
2022-10-18T03:36:31.540Z,54.62
2022-10-18T03:37:31.525Z,53.50
2022-10-18T03:38:31.518Z,53.98
2022-10-18T03:39:31.513Z,56.24
2022-10-18T03:41:32.527Z,54.46
2022-10-18T03:42:31.899Z,55.59
2022-10-18T03:43:31.479Z,56.56
2022-10-18T03:44:31.480Z,57.85
2022-10-18T03:45:31.745Z,57.20
2022-10-18T03:46:31.474Z,55.59
2022-10-18T03:47:31.477Z,54.62
2022-10-18T03:48:31.441Z,54.46
2022-10-18T03:49:31.437Z,51.08
2022-10-18T03:50:31.433Z,54.14
2022-10-18T03:51:31.417Z,53.82
2022-10-18T03:52:31.895Z,54.14
2022-10-18T03:53:31.434Z,53.66
2022-10-18T03:54:31.399Z,52.21
2022-10-18T03:55:31.387Z,55.59
2022-10-18T03:56:31.386Z,59.30
2022-10-18T03:57:31.399Z,56.72
2022-10-18T03:58:31.428Z,54.30
2022-10-18T03:59:31.359Z,56.40
2022-10-18T04:00:31.343Z,53.33
2022-10-18T04:01:31.452Z,55.91
2022-10-18T04:02:31.642Z,56.24
2022-10-18T04:03:31.356Z,55.11
2022-10-18T04:04:31.319Z,56.40
2022-10-18T04:05:31.319Z,58.01
2022-10-18T04:06:31.290Z,55.27
2022-10-18T04:07:32.357Z,54.30
2022-10-18T04:08:31.286Z,49.95
2022-10-18T04:09:31.277Z,52.69
2022-10-18T04:10:31.275Z,56.56
2022-10-18T04:11:31.269Z,54.95
2022-10-18T04:12:31.592Z,55.27
2022-10-18T04:13:31.249Z,57.36
2022-10-18T04:14:31.243Z,56.40
2022-10-18T04:15:31.236Z,58.49
2022-10-18T04:16:31.266Z,57.85
2022-10-18T04:17:31.431Z,61.07
2022-10-18T04:18:31.206Z,60.10
2022-10-18T04:19:31.204Z,59.30
2022-10-18T04:20:31.190Z,60.75
2022-10-18T04:21:31.182Z,60.10
2022-10-18T04:22:31.206Z,54.30
2022-10-18T04:23:32.806Z,59.62
2022-10-18T04:24:32.156Z,55.11
2022-10-18T04:25:31.210Z,55.11
2022-10-18T04:26:31.140Z,55.27
2022-10-18T04:27:31.428Z,59.14
2022-10-18T04:28:31.157Z,55.11
2022-10-18T04:29:31.118Z,55.11
2022-10-18T04:30:31.114Z,58.33
2022-10-18T04:31:31.105Z,57.85
2022-10-18T04:32:31.130Z,56.88
2022-10-18T04:33:31.092Z,55.43
2022-10-18T04:34:31.155Z,56.72
2022-10-18T04:35:31.072Z,57.69
2022-10-18T04:36:31.071Z,57.69
2022-10-18T04:37:31.436Z,57.04
2022-10-18T04:38:31.042Z,57.20
2022-10-18T04:39:31.051Z,58.33
2022-10-18T04:40:31.034Z,56.24
2022-10-18T04:41:31.029Z,59.46
2022-10-18T04:42:31.018Z,56.24
2022-10-18T04:43:31.031Z,61.07
2022-10-18T04:44:31.006Z,61.87
2022-10-18T04:45:30.996Z,56.56
2022-10-18T04:46:30.982Z,56.07
2022-10-18T04:47:31.325Z,57.52
2022-10-18T04:48:30.974Z,55.59
2022-10-18T04:49:30.961Z,58.97
2022-10-18T04:50:30.956Z,61.39
2022-10-18T04:51:30.946Z,61.71
2022-10-18T04:52:30.972Z,56.56
2022-10-18T04:53:30.933Z,55.43
2022-10-18T04:54:30.934Z,54.95
2022-10-18T04:55:30.914Z,56.56
2022-10-18T04:56:30.912Z,55.43
2022-10-18T04:57:31.261Z,55.11
2022-10-18T04:58:30.883Z,57.69
2022-10-18T04:59:30.877Z,59.62
2022-10-18T05:00:30.863Z,60.91
2022-10-18T05:01:31.925Z,61.07
2022-10-18T05:02:31.319Z,63.33
2022-10-18T05:03:30.846Z,61.87
2022-10-18T05:04:30.833Z,60.59
2022-10-18T05:05:50.012Z,60.75
2022-10-18T05:06:32.820Z,62.52
2022-10-18T05:07:30.832Z,60.91
2022-10-18T05:08:30.802Z,60.91
2022-10-18T05:09:30.792Z,60.75
2022-10-18T05:10:30.789Z,60.91
2022-10-18T05:11:30.778Z,61.55
2022-10-18T05:12:31.069Z,59.62
2022-10-18T05:13:30.759Z,59.14
2022-10-18T05:14:30.749Z,60.91
2022-10-18T05:15:30.744Z,61.71
2022-10-18T05:16:30.732Z,64.94
2022-10-18T05:17:30.763Z,61.23
2022-10-18T05:18:30.721Z,64.13
2022-10-18T05:19:30.715Z,62.52
2022-10-18T05:20:30.711Z,63.33
2022-10-18T05:21:30.704Z,62.20
2022-10-18T05:22:30.906Z,59.30
2022-10-18T05:23:30.707Z,58.97
2022-10-18T05:24:30.677Z,61.71
2022-10-18T05:25:30.670Z,59.78
2022-10-18T05:26:30.655Z,60.75
2022-10-18T05:27:30.693Z,60.26
2022-10-18T05:28:46.192Z,58.49
2022-10-18T05:29:32.640Z,59.30
2022-10-18T05:30:30.624Z,60.42
2022-10-18T05:31:30.616Z,60.91
2022-10-18T05:32:31.026Z,58.01
2022-10-18T05:33:30.638Z,57.20
2022-10-18T05:34:30.597Z,60.26
2022-10-18T05:35:30.587Z,56.24
2022-10-18T05:36:30.579Z,55.43
2022-10-18T05:37:30.574Z,60.26
2022-10-18T05:38:30.621Z,62.04
2022-10-18T05:39:30.550Z,60.91
2022-10-18T05:40:30.544Z,58.33
2022-10-18T05:41:30.545Z,60.10
2022-10-18T05:42:31.762Z,60.59
2022-10-18T05:43:30.545Z,60.59
2022-10-18T05:44:30.519Z,57.36
2022-10-18T05:45:30.510Z,59.78
2022-10-18T05:46:30.497Z,60.59
2022-10-18T05:47:30.550Z,60.42
2022-10-18T05:48:30.511Z,57.69
2022-10-18T05:49:30.474Z,60.10
2022-10-18T05:50:30.464Z,61.55
2022-10-18T05:51:30.453Z,62.04
2022-10-18T05:52:30.778Z,60.59
2022-10-18T05:53:38.340Z,60.91
2022-10-18T05:54:32.550Z,60.91
2022-10-18T05:55:30.426Z,59.94
2022-10-18T05:56:30.448Z,60.42
2022-10-18T05:57:30.633Z,58.65
2022-10-18T05:58:30.428Z,59.14
2022-10-18T05:59:30.384Z,61.07
2022-10-18T06:00:30.387Z,56.72
2022-10-18T06:01:30.372Z,60.42
2022-10-18T06:02:30.414Z,60.75
2022-10-18T06:03:30.383Z,57.85
2022-10-18T06:04:30.348Z,56.56
2022-10-18T06:05:30.381Z,60.10
2022-10-18T06:06:30.335Z,53.50
2022-10-18T06:07:30.682Z,53.50
2022-10-18T06:08:30.347Z,59.78
2022-10-18T06:09:30.310Z,56.88
2022-10-18T06:10:30.329Z,58.81
2022-10-18T06:11:30.298Z,58.49
2022-10-18T06:12:30.305Z,57.36
2022-10-18T06:13:32.405Z,60.10
2022-10-18T06:14:30.268Z,61.87
2022-10-18T06:15:30.262Z,57.36
2022-10-18T06:16:32.548Z,55.75
2022-10-18T06:17:32.605Z,62.84
2022-10-18T06:18:30.278Z,60.59
2022-10-18T06:19:30.236Z,57.36
2022-10-18T06:20:30.223Z,58.49
2022-10-18T06:21:30.206Z,63.00
2022-10-18T06:22:30.205Z,55.91
2022-10-18T06:23:30.225Z,59.94
2022-10-18T06:24:30.189Z,57.85
2022-10-18T06:25:30.180Z,58.81
2022-10-18T06:26:30.172Z,62.04
2022-10-18T06:27:30.439Z,61.07
2022-10-18T06:28:30.239Z,57.36
2022-10-18T06:29:30.150Z,58.17
2022-10-18T06:30:30.141Z,56.07
2022-10-18T06:31:30.135Z,58.01
2022-10-18T06:32:30.131Z,57.36
2022-10-18T06:33:30.141Z,60.75
2022-10-18T06:34:30.111Z,61.39
2022-10-18T06:35:30.105Z,56.56
2022-10-18T06:36:30.101Z,58.81
2022-10-18T06:37:30.378Z,58.65
2022-10-18T06:38:30.112Z,57.04
2022-10-18T06:39:30.073Z,55.43
2022-10-18T06:40:30.060Z,61.39
2022-10-18T06:41:30.057Z,60.75
2022-10-18T06:42:30.198Z,61.87
2022-10-18T06:43:30.074Z,57.69
2022-10-18T06:44:30.036Z,57.69
2022-10-18T06:45:30.033Z,58.97
2022-10-18T06:46:30.031Z,60.75
2022-10-18T06:47:30.029Z,60.91
2022-10-18T06:48:30.033Z,62.04
2022-10-18T06:49:29.997Z,56.40
2022-10-18T06:50:29.991Z,61.23
2022-10-18T06:51:29.980Z,62.36
2022-10-18T06:52:30.266Z,57.69
2022-10-18T06:53:29.962Z,58.01
2022-10-18T06:54:29.978Z,57.36
2022-10-18T06:55:29.974Z,56.88
2022-10-18T06:56:29.946Z,54.62
2022-10-18T06:57:29.936Z,57.20
2022-10-18T06:58:29.919Z,56.88
2022-10-18T06:59:31.317Z,56.40
2022-10-18T07:00:29.899Z,59.14
2022-10-18T07:01:29.941Z,57.85
2022-10-18T07:02:30.195Z,51.72
2022-10-18T07:03:30.882Z,51.08
2022-10-18T07:04:29.899Z,54.30
2022-10-18T07:05:29.911Z,53.98
2022-10-18T07:06:29.856Z,52.53
2022-10-18T07:07:30.088Z,53.50
2022-10-18T07:08:29.848Z,61.39
2022-10-18T07:09:29.860Z,57.36
2022-10-18T07:10:29.829Z,56.40
2022-10-18T07:11:29.818Z,56.07
2022-10-18T07:12:29.814Z,55.91
2022-10-18T07:13:32.852Z,57.20
2022-10-18T07:14:30.822Z,56.40
2022-10-18T07:15:29.819Z,61.39
2022-10-18T07:16:29.783Z,59.78
2022-10-18T07:17:30.086Z,56.56
2022-10-18T07:18:29.762Z,53.01
2022-10-18T07:19:29.787Z,59.94
2022-10-18T07:20:29.746Z,54.46
2022-10-18T07:21:29.744Z,52.53
2022-10-18T07:22:30.501Z,55.11
2022-10-18T07:23:30.723Z,52.21
2022-10-18T07:24:29.786Z,55.43
2022-10-18T07:25:30.588Z,56.40
2022-10-18T07:26:30.703Z,55.75
2022-10-18T07:27:30.010Z,51.24
2022-10-18T07:28:29.716Z,56.07
2022-10-18T07:29:29.697Z,51.72
2022-10-18T07:30:29.667Z,50.92
2022-10-18T07:31:29.658Z,57.20
2022-10-18T07:32:29.671Z,57.69
2022-10-18T07:33:29.645Z,52.53
2022-10-18T07:34:29.665Z,51.08
2022-10-18T07:35:29.635Z,55.59
2022-10-18T07:36:29.622Z,56.24
2022-10-18T07:37:30.292Z,57.20
2022-10-18T07:38:29.623Z,52.85
2022-10-18T07:39:29.633Z,52.05
2022-10-18T07:40:29.597Z,56.24
2022-10-18T07:41:29.588Z,55.11
2022-10-18T07:42:29.579Z,57.36
2022-10-18T07:43:29.573Z,53.50
2022-10-18T07:44:29.591Z,56.88
2022-10-18T07:45:29.628Z,53.01
2022-10-18T07:46:29.554Z,58.33
2022-10-18T07:47:31.357Z,56.56
2022-10-18T07:48:29.540Z,53.50
2022-10-18T07:49:29.555Z,55.59
2022-10-18T07:50:29.506Z,55.11
2022-10-18T07:51:30.516Z,51.24
2022-10-18T07:52:29.514Z,55.27
2022-10-18T07:53:29.499Z,56.72
2022-10-18T07:54:29.512Z,54.14
2022-10-18T07:55:29.478Z,52.05
2022-10-18T07:56:29.478Z,55.11
2022-10-18T07:57:29.676Z,58.01
2022-10-18T07:58:29.488Z,56.40
2022-10-18T07:59:29.506Z,51.88
2022-10-18T08:00:29.439Z,55.27
2022-10-18T08:01:29.502Z,56.07
2022-10-18T08:02:29.422Z,57.69
2022-10-18T08:03:29.419Z,51.72
2022-10-18T08:04:29.431Z,49.95
2022-10-18T08:05:29.437Z,56.40
2022-10-18T08:06:29.397Z,53.66
2022-10-18T08:07:29.494Z,48.98
2022-10-18T08:08:29.376Z,50.92
2022-10-18T08:09:29.396Z,55.43
2022-10-18T08:10:29.359Z,57.52
2022-10-18T08:11:30.353Z,52.69
2022-10-18T08:12:29.341Z,55.11
2022-10-18T08:13:29.336Z,54.62
2022-10-18T08:14:29.357Z,60.10
2022-10-18T08:15:29.324Z,56.40
2022-10-18T08:16:29.386Z,52.69
2022-10-18T08:17:29.404Z,51.72
2022-10-18T08:18:29.303Z,61.39
2022-10-18T08:19:29.318Z,52.69
2022-10-18T08:20:31.371Z,52.69
2022-10-18T08:21:30.277Z,59.62
2022-10-18T08:22:29.263Z,51.56
2022-10-18T08:23:29.253Z,49.31
2022-10-18T08:24:29.276Z,51.24
2022-10-18T08:25:29.289Z,54.95
2022-10-18T08:26:29.232Z,51.56
2022-10-18T08:27:29.385Z,56.56
2022-10-18T08:28:29.271Z,54.14
2022-10-18T08:29:31.662Z,52.05
2022-10-18T08:30:30.207Z,50.43
2022-10-18T08:31:29.206Z,50.43
2022-10-18T08:32:29.437Z,51.40
2022-10-18T08:33:29.179Z,59.94
2022-10-18T08:34:29.204Z,57.36
2022-10-18T08:35:29.161Z,55.91
2022-10-18T08:36:29.152Z,49.63
2022-10-18T08:37:29.548Z,51.08
2022-10-18T08:38:29.136Z,51.88
2022-10-18T08:39:29.158Z,58.81
2022-10-18T08:40:29.134Z,57.20
2022-10-18T08:41:29.116Z,56.24
2022-10-18T08:42:29.441Z,55.75
2022-10-18T08:43:29.139Z,58.01
2022-10-18T08:44:29.127Z,50.60
2022-10-18T08:45:42.057Z,55.43
2022-10-18T08:46:31.083Z,52.05
2022-10-18T08:47:29.222Z,51.56
2022-10-18T08:48:29.060Z,56.24
2022-10-18T08:49:29.086Z,56.07
2022-10-18T08:50:29.044Z,57.36
2022-10-18T08:51:29.045Z,60.91
2022-10-18T08:52:29.098Z,59.30
2022-10-18T08:53:29.022Z,57.85
2022-10-18T08:54:29.045Z,59.62
2022-10-18T08:55:29.013Z,61.87
2022-10-18T08:56:28.994Z,62.04
2022-10-18T08:57:29.268Z,61.71
2022-10-18T08:58:28.980Z,62.36
2022-10-18T08:59:28.971Z,62.84
2022-10-18T09:00:28.995Z,61.39
2022-10-18T09:01:28.964Z,61.23
2022-10-18T09:02:28.980Z,61.87
2022-10-18T09:03:28.999Z,61.71
2022-10-18T09:04:28.932Z,63.00
2022-10-18T09:05:28.957Z,60.26
2022-10-18T09:06:28.917Z,58.81
2022-10-18T09:07:28.918Z,59.30
2022-10-18T09:08:28.918Z,60.91
2022-10-18T09:09:28.905Z,63.33
2022-10-18T09:10:28.912Z,59.78
2022-10-18T09:11:28.881Z,59.14
2022-10-18T09:12:29.098Z,58.49
2022-10-18T09:13:28.873Z,58.17
2022-10-18T09:14:28.859Z,60.26
2022-10-18T09:15:28.879Z,58.33
2022-10-18T09:16:28.844Z,59.14
2022-10-18T09:17:28.835Z,64.13
2022-10-18T09:18:28.827Z,59.62
2022-10-18T09:19:28.816Z,60.26
2022-10-18T09:20:28.833Z,58.81
2022-10-18T09:21:28.803Z,58.81
2022-10-18T09:22:28.979Z,58.01
2022-10-18T09:23:28.790Z,55.91
2022-10-18T09:24:28.782Z,58.17
2022-10-18T09:25:28.798Z,63.97
2022-10-18T09:26:28.772Z,61.07
2022-10-18T09:27:28.759Z,56.56
2022-10-18T09:28:28.774Z,58.97
2022-10-18T09:29:28.744Z,59.62
2022-10-18T09:30:28.761Z,59.14
2022-10-18T09:31:28.761Z,53.01
2022-10-18T09:32:28.731Z,55.43
2022-10-18T09:33:28.710Z,60.42
2022-10-18T09:34:28.704Z,61.23
2022-10-18T09:35:28.736Z,57.04
2022-10-18T09:36:28.689Z,59.62
2022-10-18T09:37:28.677Z,59.62
2022-10-18T09:38:29.696Z,61.23
2022-10-18T09:39:28.663Z,53.66
2022-10-18T09:40:28.684Z,59.78
2022-10-18T09:41:28.645Z,62.36
2022-10-18T09:42:28.676Z,63.33
2022-10-18T09:43:28.631Z,60.59
2022-10-18T09:44:28.623Z,63.33
2022-10-18T09:45:28.640Z,61.55
2022-10-18T09:46:28.605Z,61.87
2022-10-18T09:47:28.596Z,58.81
2022-10-18T09:48:28.596Z,60.59
2022-10-18T09:49:28.577Z,62.04
2022-10-18T09:50:28.600Z,60.59
2022-10-18T09:51:28.573Z,55.43
2022-10-18T09:52:28.788Z,60.26
2022-10-18T09:53:28.550Z,57.04
2022-10-18T09:54:28.541Z,59.30
2022-10-18T09:55:28.565Z,62.52
2022-10-18T09:56:28.522Z,54.14
2022-10-18T09:57:28.571Z,61.39
2022-10-18T09:58:28.517Z,59.78
2022-10-18T09:59:28.500Z,54.95
2022-10-18T10:00:28.507Z,56.07
2022-10-18T10:01:28.516Z,53.98
2022-10-18T10:02:28.496Z,52.05
2022-10-18T10:03:28.464Z,55.59
2022-10-18T10:04:28.455Z,56.72
2022-10-18T10:05:28.452Z,58.65
2022-10-18T10:06:28.470Z,60.75
2022-10-18T10:07:31.085Z,56.72
2022-10-18T10:08:29.425Z,59.46
2022-10-18T10:09:28.428Z,59.78
2022-10-18T10:10:28.410Z,60.42
2022-10-18T10:11:28.430Z,60.75
2022-10-18T10:12:28.397Z,60.42
2022-10-18T10:13:28.387Z,53.82
2022-10-18T10:14:28.383Z,55.75
2022-10-18T10:15:31.386Z,54.62
2022-10-18T10:16:29.383Z,54.62
2022-10-18T10:17:28.342Z,53.01
2022-10-18T10:18:29.348Z,60.91
2022-10-18T10:19:28.334Z,54.95
2022-10-18T10:20:28.330Z,54.62
2022-10-18T10:21:28.344Z,58.49
2022-10-18T10:22:28.313Z,54.62
2022-10-18T10:23:28.307Z,51.40
2022-10-18T10:24:30.459Z,54.79
2022-10-18T10:25:28.294Z,61.23
2022-10-18T10:26:28.310Z,58.49
2022-10-18T10:27:28.279Z,53.50
2022-10-18T10:28:28.309Z,55.75
2022-10-18T10:30:30.267Z,55.59
2022-10-18T10:31:28.272Z,52.53
2022-10-18T10:33:28.216Z,54.79
2022-10-18T10:34:29.226Z,55.75
2022-10-18T10:35:42.136Z,53.98
2022-10-18T10:36:30.232Z,55.27
2022-10-18T10:37:28.192Z,56.72
2022-10-18T10:38:28.187Z,56.72
2022-10-18T10:39:28.181Z,57.85
2022-10-18T10:40:28.787Z,51.08
2022-10-18T10:41:29.243Z,54.46
2022-10-18T10:42:28.157Z,48.18
2022-10-18T10:43:42.569Z,52.05
2022-10-18T10:44:30.147Z,56.88
2022-10-18T10:45:28.137Z,52.53
2022-10-18T10:46:28.150Z,51.72
2022-10-18T10:47:28.121Z,59.14
2022-10-18T10:48:32.990Z,60.42
2022-10-18T10:49:45.494Z,53.98
2022-10-18T10:50:30.130Z,58.81
2022-10-18T10:51:28.116Z,55.75
2022-10-18T10:52:28.802Z,55.59
2022-10-18T10:53:29.066Z,55.59
2022-10-18T10:54:28.056Z,52.69
2022-10-18T10:55:35.325Z,57.85
2022-10-18T10:56:30.081Z,56.40
2022-10-18T10:57:28.043Z,53.01
2022-10-18T10:58:28.038Z,57.04
2022-10-18T10:59:28.021Z,57.85
2022-10-18T11:00:28.011Z,57.85
2022-10-18T11:01:28.030Z,50.27
2022-10-18T11:02:27.997Z,52.53
2022-10-18T11:03:29.373Z,55.11
2022-10-18T11:04:28.982Z,50.76
2022-10-18T11:05:27.973Z,53.50
2022-10-18T11:06:27.999Z,57.20
2022-10-18T11:07:27.959Z,50.60
2022-10-18T11:08:27.957Z,51.08
2022-10-18T11:09:27.950Z,54.14
2022-10-18T11:10:27.937Z,50.92
2022-10-18T11:11:27.996Z,49.47
2022-10-18T11:12:27.918Z,59.94
2022-10-18T11:13:27.912Z,54.95
2022-10-18T11:14:27.913Z,52.53
2022-10-18T11:15:27.892Z,53.50
2022-10-18T11:16:27.888Z,55.59
2022-10-18T11:17:27.916Z,58.65
2022-10-18T11:18:27.873Z,60.42
2022-10-18T11:19:28.477Z,56.40
2022-10-18T11:20:28.858Z,59.94
2022-10-18T11:21:27.861Z,56.40
2022-10-18T11:22:27.864Z,52.69
2022-10-18T11:23:27.840Z,55.11
2022-10-18T11:24:27.830Z,53.98
2022-10-18T11:25:27.825Z,59.62
2022-10-18T11:26:27.811Z,55.11
2022-10-18T11:27:27.832Z,54.46
2022-10-18T11:28:27.836Z,50.43
2022-10-18T11:29:27.798Z,52.69
2022-10-18T11:30:27.776Z,54.14
2022-10-18T11:31:27.774Z,46.41
2022-10-18T11:32:27.787Z,50.76
2022-10-18T11:33:50.033Z,54.79
2022-10-18T11:34:29.756Z,50.76
2022-10-18T11:35:27.742Z,53.66
2022-10-18T11:36:27.733Z,48.98
2022-10-18T11:37:31.093Z,48.82
2022-10-18T11:38:29.719Z,55.43
2022-10-18T11:39:27.713Z,48.82
2022-10-18T11:40:27.712Z,59.46
2022-10-18T11:41:27.696Z,57.20
2022-10-18T11:42:27.712Z,53.98
2022-10-18T11:43:38.937Z,54.14
2022-10-18T11:44:29.671Z,43.83
2022-10-18T11:45:27.801Z,59.94
2022-10-18T11:46:27.660Z,48.82
2022-10-18T11:47:27.671Z,55.11
2022-10-18T11:48:27.642Z,51.72
2022-10-18T11:49:27.632Z,50.43
2022-10-18T11:50:27.669Z,51.40
2022-10-18T11:51:34.033Z,60.75
2022-10-18T11:52:29.630Z,53.33
2022-10-18T11:53:27.608Z,50.11
2022-10-18T11:54:27.629Z,49.95
2022-10-18T11:55:30.405Z,53.17
2022-10-18T11:56:28.584Z,51.88
2022-10-18T11:57:27.605Z,48.82
2022-10-18T11:58:27.570Z,46.89
2022-10-18T11:59:27.562Z,57.69
2022-10-18T12:01:28.812Z,52.53
2022-10-18T12:02:27.594Z,47.05
2022-10-18T12:03:27.524Z,53.01
2022-10-18T12:04:27.516Z,57.20
2022-10-18T12:05:27.511Z,57.85
2022-10-18T12:06:27.506Z,57.85
2022-10-18T12:07:31.634Z,50.92
2022-10-18T12:08:28.487Z,47.21
2022-10-18T12:09:27.494Z,48.82
2022-10-18T12:10:39.288Z,49.63
2022-10-18T12:11:28.461Z,53.50
2022-10-18T12:12:27.477Z,52.53
2022-10-18T12:13:27.445Z,57.36
2022-10-18T12:14:27.437Z,49.79
2022-10-18T12:15:27.429Z,49.95
2022-10-18T12:16:49.388Z,46.25
2022-10-18T12:17:42.717Z,49.95
2022-10-18T12:18:29.403Z,51.40
2022-10-18T12:19:27.553Z,47.86
2022-10-18T12:20:27.387Z,54.46
2022-10-18T12:21:27.378Z,49.79
2022-10-18T12:22:27.374Z,50.11
2022-10-18T12:23:27.388Z,48.34
2022-10-18T12:24:27.365Z,48.82
2022-10-18T12:25:27.352Z,52.69
2022-10-18T12:26:27.350Z,54.46
2022-10-18T12:27:27.324Z,49.63
2022-10-18T12:28:28.437Z,42.70
2022-10-18T12:29:27.315Z,44.31
2022-10-18T12:30:27.314Z,46.73
2022-10-18T12:31:27.304Z,54.46
2022-10-18T12:32:27.299Z,55.43
2022-10-18T12:33:28.843Z,50.27
2022-10-18T12:34:28.278Z,49.63
2022-10-18T12:35:27.274Z,48.66
2022-10-18T12:36:27.282Z,52.05
2022-10-18T12:37:27.256Z,54.79
2022-10-18T12:38:27.280Z,55.27
2022-10-18T12:39:37.554Z,53.50
2022-10-18T12:40:29.239Z,57.52
2022-10-18T12:41:27.234Z,52.21
2022-10-18T12:42:27.221Z,58.33
2022-10-18T12:43:27.243Z,60.42
2022-10-18T12:44:27.203Z,56.56
2022-10-18T12:45:27.199Z,47.37
2022-10-18T12:46:27.204Z,50.43
2022-10-18T12:47:27.175Z,49.63
2022-10-18T12:48:27.199Z,58.17
2022-10-18T12:49:27.160Z,59.46
2022-10-18T12:50:27.151Z,59.94
2022-10-18T12:51:27.146Z,57.69
2022-10-18T12:52:27.135Z,56.40
2022-10-18T12:53:27.160Z,57.85
2022-10-18T12:54:27.127Z,51.56
2022-10-18T12:55:27.118Z,60.75
2022-10-18T12:56:27.111Z,60.42
2022-10-18T12:57:27.185Z,51.24